• Join FlightAware (Why Join?)
  • Login
  • US Flag 
05:49PM EDT


 

Airport Tracker/Info


-or-


 

Live Flight TrackerFlight Track Log ✈ EWG3206 ✈ 22-Jan-2014 ✈ EDDL / DUS - LIMF / TRN

Flight Track Log - Related Links

Times and Time Zones

All times are in EST time to prevent confusion due to time zone crossing. See the EWG3206 flight status page for this flight to view local times or setup timezone preferences in your user account.

Time Position Orientation Groundspeed Altitude Reporting Facility
EST Latitude Longitude Course Direction KTS MPH feet Rate Location/Type
09:19AM 50.9902 6.8155 174° South  Level Estimated
09:20AM 50.8905 6.8316 174° South  Level Estimated
09:21AM 50.7908 6.8476 174° South  Level Estimated
09:22AM 50.6910 6.8635 174° South  Level Estimated
09:23AM 50.5913 6.8794 174° South  Level Estimated
09:24AM 50.4915 6.8952 174° South  Level Estimated
09:25AM 50.3918 6.9110 174° South  Level Estimated
09:26AM 50.2920 6.9267 174° South  Level Estimated
09:27AM 50.1922 6.9423 174° South  Level Estimated
09:28AM 50.0925 6.9578 174° South  Level Estimated
09:29AM 49.9927 6.9733 174° South  Level Estimated
09:30AM 49.8930 6.9887 174° South  Level Estimated
09:31AM 49.7932 7.0041 174° South  Level Estimated
09:32AM 49.6934 7.0194 174° South  Level Estimated
09:33AM 49.5937 7.0346 174° South  Level Estimated
09:34AM 49.4939 7.0498 174° South  Level Estimated
09:35AM 49.3941 7.0649 174° South  Level Estimated
09:36AM 49.2943 7.0800 174° South  Level Estimated
09:37AM 49.1946 7.0950 174° South  Level Estimated
09:38AM 49.0948 7.1099 174° South  Level Estimated
09:39AM 48.9950 7.1248 174° South  Level Estimated
09:40AM 48.8952 7.1396 174° South  Level Estimated
09:41AM 48.7954 7.1543 174° South  Level Estimated
09:42AM 48.6956 7.1690 174° South  Level Estimated
09:43AM 48.5959 7.1836 174° South  Level Estimated
09:44AM 48.4961 7.1982 174° South  Level Estimated
09:45AM 48.3963 7.2127 174° South  Level Estimated
09:46AM 48.2965 7.2272 174° South  Level Estimated
09:47AM 48.1967 7.2416 175° South  Level Estimated
09:48AM 48.0969 7.2559 175° South  Level Estimated
09:49AM 47.9971 7.2702 175° South  Level Estimated
09:50AM 47.8973 7.2845 175° South  Level Estimated
09:51AM 47.7975 7.2987 175° South  Level Estimated
09:52AM 47.6977 7.3128 175° South  Level Estimated
09:53AM 47.5979 7.3269 175° South  Level Estimated
09:54AM 47.4981 7.3409 175° South  Level Estimated
09:55AM 47.3983 7.3549 175° South  Level Estimated
09:56AM 47.2985 7.3688 175° South  Level Estimated
09:57AM 47.1986 7.3826 175° South  Level Estimated
09:58AM 47.0988 7.3965 175° South  Level Estimated
09:59AM 46.9990 7.4102 175° South  Level Estimated
10:00AM 46.8992 7.4239 175° South  Level Estimated
10:01AM 46.7885 7.4391 175° South  Level Estimated
10:02AM 46.6778 7.4541 175° South  Level Estimated
10:03AM 46.5671 7.4692 175° South  Level Estimated
10:04AM 46.4563 7.4841 175° South  Level Estimated
10:05AM 46.3456 7.4990 175° South  Level Estimated
10:06AM 46.2349 7.5139 175° South  Level Estimated
10:07AM 46.1242 7.5286 175° South  Level Estimated
10:08AM 46.0135 7.5434 175° South  Level Estimated
10:09AM 45.9027 7.5580 175° South  Level Estimated
10:10AM 45.7920 7.5726 175° South  Level Estimated
10:11AM 45.6813 7.5872 175° South  Level Estimated
10:12AM 45.5706 7.6017 175° South  Level Estimated
10:13AM 45.4598 7.6161 175° South  Level Estimated
10:14AM 45.3491 7.6305 175° South  Level Estimated
10:15AM 45.2384 7.6448 175° South  Level Estimated
10:16AM 45.2008 7.6496 175° South  Level Estimated
10:17AM 45.2008 7.6496 35° Northeast  Level Estimated
10:18AM 45.2008 7.6496 35° Northeast  Level Estimated
10:19AM 45.2008 7.6496 35° Northeast  Level Estimated
10:20AM 45.2008 7.6496 35° Northeast  Level Estimated
10:21AM 45.2008 7.6496 35° Northeast  Level Estimated
10:22AM 45.2008 7.6496 35° Northeast  Level Estimated
10:23AM 45.2008 7.6496 35° Northeast  Level Estimated
10:24AM 45.2008 7.6496 35° Northeast  Level Estimated
10:25AM 45.2008 7.6496 35° Northeast  Level Estimated
10:26AM 45.2008 7.6496 35° Northeast  Level Estimated
10:27AM 45.2008 7.6496 35° Northeast  Level Estimated